Lady Nur — 3FFE2 — position and weather

sailwx.info

Track history (hours):
 
Tides and Currents Weather Stations Pressure Air Temp Water Temp Dewpoint Dewpoint Depression Visibility Wind Speed Wind Dir Waves Ship Positions

Lady Nur

Last reported at 2014-Sep-30 04:28 UTC. Time now 2014-Oct-01 08:21 UTC.
Position N 38°46' E 009°02'.

Length 82 m; draft 5 m.

Type: Cargo ship. MMSI: 373237000.

Date/timePositionNaut miles runAvg speedWind from/ knotsBaromVisibWave heightAir tempDewpointWater temp
2014-Sep-30 04:28N 38°46' E 009°02'7 7.2
2014-Sep-30 03:33N 38°48' E 008°54'7 7.1
2014-Sep-30 02:33N 38°49' E 008°45'8 6.8
2014-Sep-30 01:20N 38°51' E 008°34'14 7.0
2014-Sep-29 23:21N 38°58' E 008°19'6 7.4
2014-Sep-29 22:29N 39°03' E 008°14'17 7.9
2014-Sep-29 20:17N 39°20' E 008°14'9 8.9
2014-Sep-29 19:13N 39°29' E 008°16'15 8.8
2014-Sep-29 17:33N 39°44' E 008°21'  
2014-Sep-25 12:33N 39°22' E 008°14'47 7.8
2014-Sep-25 06:33N 38°42' E 008°46'  
2014-Sep-22 14:21N 35°50' E 010°39'0 0.0
2014-Sep-22 13:33N 35°50' E 010°39'2 0.1
2014-Sep-21 16:29N 35°50' E 010°41'0 0.0
2014-Sep-21 15:32N 35°50' E 010°41'0 0.0
2014-Sep-21 14:32N 35°50' E 010°41'0 0.0
2014-Sep-21 09:32N 35°50' E 010°41'0 0.0
2014-Sep-21 08:32N 35°50' E 010°41'0 0.0
2014-Sep-21 07:32N 35°50' E 010°41'0 0.0
2014-Sep-21 06:32N 35°50' E 010°41'0 0.0
2014-Sep-21 05:32N 35°50' E 010°41'0 0.0
2014-Sep-21 04:32N 35°50' E 010°41'0 0.0
2014-Sep-21 03:32N 35°50' E 010°41'0 0.0
2014-Sep-21 02:32N 35°50' E 010°41'0 0.0
2014-Sep-21 01:32N 35°50' E 010°41'0 0.0
2014-Sep-21 00:23N 35°50' E 010°41'0 0.0
2014-Sep-20 23:32N 35°50' E 010°41'0 0.0
2014-Sep-20 22:29N 35°50' E 010°41'0 0.0
2014-Sep-20 21:32N 35°50' E 010°41'0 0.0
2014-Sep-20 20:23N 35°50' E 010°41'0 0.0
2014-Sep-20 19:32N 35°50' E 010°41'0 0.0
2014-Sep-20 17:07N 35°50' E 010°41'23 5.1
2014-Sep-20 12:33N 35°55' E 011°10'  
Track history (hours):
 
Tides and Currents Weather Stations Pressure Air Temp Water Temp Dewpoint Dewpoint Depression Visibility Wind Speed Wind Dir Waves Ship Positions

Lady Nur

Last reported at 2014-Sep-30 04:28 UTC. Time now 2014-Oct-01 08:21 UTC.
Position N 38°46' E 009°02'.

Length 82 m; draft 5 m.

Type: Cargo ship. MMSI: 373237000.

Date/timePositionNaut miles runAvg speedWind from/ knotsBaromVisibWave heightAir tempDewpointWater temp
2014-Sep-30 04:28N 38°46' E 009°02'7 7.2
2014-Sep-30 03:33N 38°48' E 008°54'7 7.1
2014-Sep-30 02:33N 38°49' E 008°45'8 6.8
2014-Sep-30 01:20N 38°51' E 008°34'14 7.0
2014-Sep-29 23:21N 38°58' E 008°19'6 7.4
2014-Sep-29 22:29N 39°03' E 008°14'17 7.9
2014-Sep-29 20:17N 39°20' E 008°14'9 8.9
2014-Sep-29 19:13N 39°29' E 008°16'15 8.8
2014-Sep-29 17:33N 39°44' E 008°21'  
2014-Sep-25 12:33N 39°22' E 008°14'47 7.8
2014-Sep-25 06:33N 38°42' E 008°46'  
2014-Sep-22 14:21N 35°50' E 010°39'0 0.0
2014-Sep-22 13:33N 35°50' E 010°39'2 0.1
2014-Sep-21 16:29N 35°50' E 010°41'0 0.0
2014-Sep-21 15:32N 35°50' E 010°41'0 0.0
2014-Sep-21 14:32N 35°50' E 010°41'0 0.0
2014-Sep-21 09:32N 35°50' E 010°41'0 0.0
2014-Sep-21 08:32N 35°50' E 010°41'0 0.0
2014-Sep-21 07:32N 35°50' E 010°41'0 0.0
2014-Sep-21 06:32N 35°50' E 010°41'0 0.0
2014-Sep-21 05:32N 35°50' E 010°41'0 0.0
2014-Sep-21 04:32N 35°50' E 010°41'0 0.0
2014-Sep-21 03:32N 35°50' E 010°41'0 0.0
2014-Sep-21 02:32N 35°50' E 010°41'0 0.0
2014-Sep-21 01:32N 35°50' E 010°41'0 0.0
2014-Sep-21 00:23N 35°50' E 010°41'0 0.0
2014-Sep-20 23:32N 35°50' E 010°41'0 0.0
2014-Sep-20 22:29N 35°50' E 010°41'0 0.0
2014-Sep-20 21:32N 35°50' E 010°41'0 0.0
2014-Sep-20 20:23N 35°50' E 010°41'0 0.0
2014-Sep-20 19:32N 35°50' E 010°41'0 0.0
2014-Sep-20 17:07N 35°50' E 010°41'23 5.1
2014-Sep-20 12:33N 35°55' E 011°10'  

Dump ship's entire track history